createdAt,value
2023-03-20T00:01:33.530Z,100982.28
2023-03-20T00:04:00.221Z,100984.03
2023-03-20T00:06:31.356Z,100978.81
2023-03-20T00:08:58.278Z,100965.69
2023-03-20T00:11:30.964Z,100965.69
2023-03-20T00:14:04.134Z,100962.19
2023-03-20T00:16:33.929Z,100961.31
2023-03-20T00:19:00.659Z,100971.81
2023-03-20T00:21:27.377Z,100965.66
2023-03-20T00:23:54.937Z,100959.56
2023-03-20T00:26:25.393Z,100960.44
2023-03-20T00:28:52.398Z,100951.69
2023-03-20T00:31:31.262Z,100942.97
2023-03-20T00:34:00.675Z,100943.84
2023-03-20T00:36:28.450Z,100941.22
2023-03-20T00:38:57.915Z,100941.22
2023-03-20T00:41:31.265Z,100939.47
2023-03-20T00:44:04.677Z,100929.00
2023-03-20T00:46:38.514Z,100923.75
2023-03-20T00:49:06.396Z,100915.88
2023-03-20T00:51:32.999Z,100906.28
2023-03-20T00:53:59.639Z,100906.28
2023-03-20T00:56:33.470Z,100890.56
2023-03-20T00:59:01.708Z,100895.81
2023-03-20T01:01:29.660Z,100887.06
2023-03-20T01:03:56.553Z,100894.03
2023-03-20T01:06:23.242Z,100883.56
2023-03-20T01:08:49.895Z,100883.56
2023-03-20T01:11:23.481Z,100870.44
2023-03-20T01:13:52.286Z,100864.31
2023-03-20T01:16:25.586Z,100868.69
2023-03-20T01:18:53.263Z,100857.34
2023-03-20T01:21:21.301Z,100857.34
2023-03-20T01:23:49.075Z,100863.44
2023-03-20T01:26:24.173Z,100852.97
2023-03-20T01:28:51.659Z,100860.81
2023-03-20T01:31:19.045Z,100860.75
2023-03-20T01:33:46.781Z,100850.28
2023-03-20T01:36:15.786Z,100846.78
2023-03-20T01:38:43.019Z,100833.63
2023-03-20T01:41:18.170Z,100829.25
2023-03-20T01:43:46.233Z,100825.72
2023-03-20T01:46:22.772Z,100827.44
2023-03-20T01:48:52.249Z,100818.72
2023-03-20T01:51:27.490Z,100828.34
2023-03-20T01:54:06.723Z,100814.34
2023-03-20T01:56:38.348Z,100813.47
2023-03-20T01:59:17.468Z,100813.47
2023-03-20T02:01:45.016Z,100816.97
2023-03-20T02:04:14.122Z,100819.59
2023-03-20T02:06:42.407Z,100810.81
2023-03-20T02:09:09.037Z,100809.09
2023-03-20T02:11:38.327Z,100810.84
2023-03-20T02:14:05.421Z,100801.22
2023-03-20T02:16:32.131Z,100800.34
2023-03-20T02:18:59.190Z,100795.97
2023-03-20T02:21:56.441Z,100795.13
2023-03-20T02:24:31.764Z,100783.75
2023-03-20T02:27:20.137Z,100770.66
2023-03-20T02:30:18.398Z,100769.75
2023-03-20T02:33:08.762Z,100752.28
2023-03-20T02:36:14.890Z,100758.38
2023-03-20T02:39:15.231Z,100751.41
2023-03-20T02:41:52.993Z,100749.69
2023-03-20T02:44:19.648Z,100748.78
2023-03-20T02:47:13.491Z,100730.41
2023-03-20T02:49:58.816Z,100736.53
2023-03-20T02:53:01.390Z,100733.03
2023-03-20T02:55:52.437Z,100726.94
2023-03-20T02:58:28.440Z,100719.06
2023-03-20T03:01:02.207Z,100724.31
2023-03-20T03:03:41.547Z,100712.06
2023-03-20T03:06:21.076Z,100712.06
2023-03-20T03:08:52.722Z,100706.78
2023-03-20T03:11:19.370Z,100719.03
2023-03-20T03:13:51.686Z,100713.78
2023-03-20T03:16:40.729Z,100698.91
2023-03-20T03:19:16.622Z,100702.38
2023-03-20T03:21:43.236Z,100701.47
2023-03-20T03:24:40.276Z,100697.97
2023-03-20T03:27:17.615Z,100699.72
2023-03-20T03:29:49.581Z,100688.34
2023-03-20T03:32:25.445Z,100683.09
2023-03-20T03:34:52.408Z,100685.69
2023-03-20T03:37:30.262Z,100671.72
2023-03-20T03:40:25.691Z,100671.69
2023-03-20T03:42:58.161Z,100671.69
2023-03-20T03:45:33.776Z,100671.66
2023-03-20T03:48:06.447Z,100658.53
2023-03-20T03:50:49.327Z,100638.44
2023-03-20T03:53:22.627Z,100639.25
2023-03-20T03:55:53.831Z,100630.47
2023-03-20T03:58:29.726Z,100638.31
2023-03-20T04:00:59.366Z,100641.81
2023-03-20T04:03:31.642Z,100633.94
2023-03-20T04:06:00.484Z,100626.94
2023-03-20T04:08:27.253Z,100638.28
2023-03-20T04:10:53.893Z,100637.34
2023-03-20T04:13:20.523Z,100629.50
2023-03-20T04:15:47.312Z,100617.22
2023-03-20T04:18:18.312Z,100607.59
2023-03-20T04:20:46.804Z,100613.69
2023-03-20T04:23:14.814Z,100609.28
2023-03-20T04:25:41.751Z,100605.78
2023-03-20T04:28:08.476Z,100591.72
2023-03-20T04:30:35.478Z,100592.59
2023-03-20T04:33:02.155Z,100596.06
2023-03-20T04:35:28.866Z,100591.66
2023-03-20T04:37:55.468Z,100589.03
2023-03-20T04:40:22.152Z,100597.78
2023-03-20T04:42:48.756Z,100587.28
2023-03-20T04:45:15.436Z,100582.84
2023-03-20T04:47:42.037Z,100579.31
2023-03-20T04:50:09.141Z,100582.81
2023-03-20T04:52:35.789Z,100581.88
2023-03-20T04:55:02.472Z,100577.53
2023-03-20T04:57:29.189Z,100570.47
2023-03-20T04:59:56.349Z,100565.16
2023-03-20T05:02:23.074Z,100568.66
2023-03-20T05:04:49.721Z,100570.38
2023-03-20T05:07:16.407Z,100580.81
2023-03-20T05:09:43.092Z,100568.53
2023-03-20T05:12:10.409Z,100563.28
2023-03-20T05:14:37.141Z,100560.63
2023-03-20T05:17:04.622Z,100569.31
2023-03-20T05:19:31.571Z,100571.94
2023-03-20T05:21:58.200Z,100562.31
2023-03-20T05:24:24.977Z,100553.53
2023-03-20T05:26:51.852Z,100558.72
2023-03-20T05:29:18.492Z,100554.34
2023-03-20T05:31:45.420Z,100549.94
2023-03-20T05:34:12.065Z,100552.56
2023-03-20T05:36:39.001Z,100545.56
2023-03-20T05:39:06.347Z,100539.41
2023-03-20T05:41:33.177Z,100545.53
2023-03-20T05:43:59.857Z,100551.59
2023-03-20T05:46:26.692Z,100546.34
2023-03-20T05:48:53.466Z,100545.41
2023-03-20T05:51:20.617Z,100540.13
2023-03-20T05:53:47.217Z,100536.56
2023-03-20T05:56:14.011Z,100540.06
2023-03-20T05:58:42.334Z,100526.88
2023-03-20T06:01:09.046Z,100532.09
2023-03-20T06:03:36.666Z,100523.34
2023-03-20T06:06:04.320Z,100526.78
2023-03-20T06:08:30.998Z,100521.53
2023-03-20T06:10:57.670Z,100523.25
2023-03-20T06:13:24.378Z,100522.34
2023-03-20T06:15:51.307Z,100515.31
2023-03-20T06:18:17.975Z,100517.91
2023-03-20T06:20:44.601Z,100522.25
2023-03-20T06:23:11.224Z,100516.13
2023-03-20T06:25:38.779Z,100519.59
2023-03-20T06:28:05.483Z,100511.69
2023-03-20T06:30:32.085Z,100508.16
2023-03-20T06:32:58.791Z,100519.50
2023-03-20T06:35:25.492Z,100521.22
2023-03-20T06:37:52.185Z,100522.03
2023-03-20T06:40:18.972Z,100520.25
2023-03-20T06:42:45.581Z,100520.22
2023-03-20T06:45:12.355Z,100507.91
2023-03-20T06:47:39.074Z,100510.50
2023-03-20T06:50:06.294Z,100517.38
2023-03-20T06:52:32.970Z,100511.22
2023-03-20T06:54:59.584Z,100506.75
2023-03-20T06:57:26.225Z,100506.66
2023-03-20T06:59:53.415Z,100508.34
2023-03-20T07:02:20.394Z,100494.22
2023-03-20T07:11:12.955Z,100501.09
2023-03-20T07:13:39.578Z,100501.09
2023-03-20T07:16:07.499Z,100500.19
2023-03-20T07:18:34.265Z,100498.41
2023-03-20T07:21:04.233Z,100497.44
2023-03-20T07:23:31.791Z,100492.13
2023-03-20T07:25:58.944Z,100493.00
2023-03-20T07:28:25.663Z,100492.94
2023-03-20T07:30:52.307Z,100483.22
2023-03-20T07:33:19.564Z,100484.91
2023-03-20T07:35:46.286Z,100491.78
2023-03-20T07:38:12.953Z,100494.34
2023-03-20T07:40:39.605Z,100488.13
2023-03-20T07:43:06.708Z,100481.88
2023-03-20T07:45:33.430Z,100473.94
2023-03-20T07:48:00.552Z,100477.31
2023-03-20T07:50:27.288Z,100473.72
2023-03-20T07:52:53.950Z,100471.06
2023-03-20T07:55:20.577Z,100471.88
2023-03-20T07:57:49.730Z,100473.53
2023-03-20T08:00:17.628Z,100461.19
2023-03-20T08:02:44.652Z,100459.44
2023-03-20T08:05:11.605Z,100457.63
2023-03-20T08:07:38.436Z,100461.97
2023-03-20T08:10:05.738Z,100459.28
2023-03-20T08:12:32.372Z,100461.00
2023-03-20T08:14:59.455Z,100459.28
2023-03-20T08:17:26.168Z,100451.28
2023-03-20T08:19:52.893Z,100448.63
2023-03-20T08:22:19.532Z,100448.53
2023-03-20T08:24:46.136Z,100445.88
2023-03-20T08:27:12.737Z,100447.56
2023-03-20T08:29:39.465Z,100432.53
2023-03-20T08:32:06.268Z,100435.97
2023-03-20T08:34:33.709Z,100437.63
2023-03-20T08:37:02.588Z,100425.22
2023-03-20T08:39:29.235Z,100432.16
2023-03-20T08:41:55.862Z,100423.25
2023-03-20T08:44:22.474Z,100431.94
2023-03-20T08:46:49.187Z,100433.66
2023-03-20T08:49:16.186Z,100414.28
2023-03-20T08:51:43.164Z,100424.75
2023-03-20T08:54:09.789Z,100423.78
2023-03-20T08:56:36.465Z,100417.53
2023-03-20T08:59:03.123Z,100422.72
2023-03-20T09:01:46.048Z,100412.00
2023-03-20T09:04:14.766Z,100426.91
2023-03-20T09:06:42.212Z,100418.06
2023-03-20T09:09:08.842Z,100421.53
2023-03-20T09:11:36.175Z,100411.78
2023-03-20T09:14:02.781Z,100410.00
2023-03-20T09:16:29.477Z,100413.44
2023-03-20T09:18:56.245Z,100407.22
2023-03-20T09:21:23.108Z,100417.63
2023-03-20T09:23:49.761Z,100412.31
2023-03-20T09:26:16.933Z,100411.34
2023-03-20T09:28:43.627Z,100408.69
2023-03-20T09:31:10.318Z,100414.75
2023-03-20T09:33:37.026Z,100401.56
2023-03-20T09:36:04.264Z,100405.84
2023-03-20T09:38:31.004Z,100402.28
2023-03-20T09:41:00.748Z,100401.41
2023-03-20T09:43:48.762Z,100400.47
2023-03-20T09:46:40.116Z,100401.41
2023-03-20T09:49:41.976Z,100403.19
2023-03-20T09:52:35.027Z,100397.00
2023-03-20T09:55:08.065Z,100394.44
2023-03-20T09:57:43.988Z,100397.97
2023-03-20T10:00:21.114Z,100396.22
2023-03-20T10:03:12.064Z,100390.09
2023-03-20T10:05:57.558Z,100391.88
2023-03-20T10:08:36.292Z,100385.75
2023-03-20T10:11:26.875Z,100386.66
2023-03-20T10:14:22.583Z,100384.88
2023-03-20T10:17:19.950Z,100389.28
2023-03-20T10:19:51.810Z,100386.56
2023-03-20T10:22:29.308Z,100390.94
2023-03-20T10:25:03.183Z,100394.34
2023-03-20T10:27:34.886Z,100396.03
2023-03-20T10:30:13.203Z,100395.97
2023-03-20T10:32:57.174Z,100389.69
2023-03-20T10:35:32.089Z,100389.59
2023-03-20T10:38:04.733Z,100390.41
2023-03-20T10:40:38.560Z,100387.75
2023-03-20T10:43:41.651Z,100384.25
2023-03-20T10:46:10.544Z,100388.59
2023-03-20T10:48:42.881Z,100385.03
2023-03-20T10:51:17.149Z,100379.78
2023-03-20T10:53:48.463Z,100379.69
2023-03-20T10:56:36.966Z,100378.72
2023-03-20T10:59:29.657Z,100377.72
2023-03-20T11:01:56.672Z,100372.41
2023-03-20T11:04:23.449Z,100371.41
2023-03-20T11:07:07.342Z,100366.91
2023-03-20T11:09:34.053Z,100360.66
2023-03-20T11:12:03.308Z,100364.13
2023-03-20T11:14:36.119Z,100366.59
2023-03-20T11:17:04.978Z,100363.00
2023-03-20T11:19:37.631Z,100359.38
2023-03-20T11:22:26.220Z,100348.81
2023-03-20T11:24:56.175Z,100347.03
2023-03-20T11:27:28.156Z,100348.78
2023-03-20T11:29:56.869Z,100351.28
2023-03-20T11:32:32.625Z,100339.69
2023-03-20T11:35:18.378Z,100346.59
2023-03-20T11:37:48.037Z,100344.72
2023-03-20T11:40:30.037Z,100345.41
2023-03-20T11:43:04.390Z,100345.19
2023-03-20T11:45:40.206Z,100342.38
2023-03-20T11:48:14.872Z,100345.84
2023-03-20T11:50:49.324Z,100335.28
2023-03-20T11:53:39.317Z,100337.00
2023-03-20T11:56:13.630Z,100331.66
2023-03-20T11:58:57.763Z,100335.19
2023-03-20T12:01:25.708Z,100330.81
2023-03-20T12:03:55.781Z,100334.38
2023-03-20T12:06:26.070Z,100332.66
2023-03-20T12:09:05.042Z,100320.34
2023-03-20T12:11:47.272Z,100317.69
2023-03-20T12:14:29.306Z,100315.88
2023-03-20T12:17:26.473Z,100319.28
2023-03-20T12:20:00.203Z,100310.41
2023-03-20T12:22:33.645Z,100305.00
2023-03-20T12:25:26.151Z,100313.63
2023-03-20T12:28:01.575Z,100308.25
2023-03-20T12:31:02.000Z,100301.19
2023-03-20T12:34:01.501Z,100301.09
2023-03-20T12:36:42.372Z,100303.78
2023-03-20T12:39:17.460Z,100303.78
2023-03-20T12:42:01.162Z,100311.75
2023-03-20T12:44:33.524Z,100318.00
2023-03-20T12:47:13.683Z,100326.16
2023-03-20T12:50:04.610Z,100336.84
2023-03-20T12:52:36.876Z,100340.59
2023-03-20T12:56:00.664Z,100334.75
2023-03-20T12:58:47.665Z,100330.53
2023-03-20T13:01:21.389Z,100332.38
2023-03-20T13:04:08.320Z,100328.97
2023-03-20T13:06:40.857Z,100331.69
2023-03-20T13:09:32.184Z,100333.53
2023-03-20T13:12:04.913Z,100327.34
2023-03-20T13:14:55.898Z,100326.50
2023-03-20T13:17:37.462Z,100328.34
2023-03-20T13:20:22.738Z,100330.06
2023-03-20T13:23:06.624Z,100328.34
2023-03-20T13:26:02.829Z,100329.25
2023-03-20T13:28:53.181Z,100328.44
2023-03-20T13:31:25.530Z,100329.38
2023-03-20T13:34:17.875Z,100333.03
2023-03-20T13:36:47.129Z,100340.19
2023-03-20T13:39:29.841Z,100343.09
2023-03-20T13:41:59.477Z,100360.88
2023-03-20T13:44:29.755Z,100353.13
2023-03-20T13:47:24.377Z,100358.63
2023-03-20T13:49:58.096Z,100354.34
2023-03-20T13:52:31.006Z,100361.47
2023-03-20T13:55:27.327Z,100362.53
2023-03-20T13:58:27.618Z,100361.84
2023-03-20T14:01:05.778Z,100363.66
2023-03-20T14:03:44.553Z,100373.41
2023-03-20T14:06:23.441Z,100377.91
2023-03-20T14:08:54.358Z,100389.47
2023-03-20T14:11:20.962Z,100384.31
2023-03-20T14:14:06.204Z,100383.63
2023-03-20T14:16:32.960Z,100386.41
2023-03-20T14:19:11.107Z,100392.69
2023-03-20T14:21:39.585Z,100403.31
2023-03-20T14:24:07.832Z,100412.16
2023-03-20T14:26:41.886Z,100401.97
2023-03-20T14:29:11.566Z,100403.13
2023-03-20T14:31:41.967Z,100407.72
2023-03-20T14:34:11.852Z,100412.16
2023-03-20T14:37:05.157Z,100411.38
2023-03-20T14:39:46.316Z,100414.25
2023-03-20T14:42:36.186Z,100431.09
2023-03-20T14:45:39.477Z,100432.16
2023-03-20T14:48:12.339Z,100438.38
2023-03-20T14:50:55.680Z,100435.88
2023-03-20T14:53:24.929Z,100432.31
2023-03-20T14:55:57.726Z,100429.69
2023-03-20T14:58:38.089Z,100427.16
2023-03-20T15:01:14.250Z,100439.47
2023-03-20T15:03:42.489Z,100440.44
2023-03-20T15:06:10.364Z,100440.47
2023-03-20T15:08:45.341Z,100444.91
2023-03-20T15:11:14.621Z,100449.41
2023-03-20T15:13:43.685Z,100449.47
2023-03-20T15:16:13.230Z,100454.84
2023-03-20T15:18:46.914Z,100461.94
2023-03-20T15:21:28.603Z,100472.50
2023-03-20T15:23:55.287Z,100483.97
2023-03-20T15:26:25.280Z,100472.63
2023-03-20T15:29:00.721Z,100482.41
2023-03-20T15:31:32.990Z,100488.69
2023-03-20T15:34:02.105Z,100488.00
2023-03-20T15:36:31.477Z,100489.88
2023-03-20T15:39:15.249Z,100501.41
2023-03-20T15:41:58.405Z,100501.50
2023-03-20T15:44:27.697Z,100500.72
2023-03-20T15:47:00.926Z,100499.03
2023-03-20T15:49:30.613Z,100524.56
2023-03-20T15:52:00.934Z,100522.88
2023-03-20T15:54:27.808Z,100528.22
2023-03-20T15:57:02.532Z,100531.81
2023-03-20T15:59:31.954Z,100534.47
2023-03-20T16:01:59.680Z,100534.53
2023-03-20T16:04:28.059Z,100539.91
2023-03-20T16:07:00.469Z,100541.72
2023-03-20T16:09:28.432Z,100543.50
2023-03-20T16:12:03.149Z,100562.78
2023-03-20T16:14:35.001Z,100561.06
2023-03-20T16:17:04.101Z,100578.63
2023-03-20T16:19:30.947Z,100573.44
2023-03-20T16:22:11.379Z,100578.75
2023-03-20T16:24:40.387Z,100569.25
2023-03-20T16:27:10.622Z,100580.59
2023-03-20T16:29:42.848Z,100585.03
2023-03-20T16:32:51.222Z,100586.88
2023-03-20T16:35:26.509Z,100595.69
2023-03-20T16:37:56.180Z,100595.72
2023-03-20T16:40:28.753Z,100607.13
2023-03-20T16:42:57.272Z,100606.31
2023-03-20T16:45:34.341Z,100607.25
2023-03-20T16:48:10.509Z,100615.19
2023-03-20T16:50:39.892Z,100613.50
2023-03-20T16:53:17.679Z,100622.28
2023-03-20T16:55:50.817Z,100630.19
2023-03-20T16:58:41.151Z,100631.13
2023-03-20T17:01:14.573Z,100632.09
2023-03-20T17:03:44.494Z,100646.13
2023-03-20T17:06:20.810Z,100652.31
2023-03-20T17:08:53.248Z,100657.59
2023-03-20T17:11:29.733Z,100665.47
2023-03-20T17:13:56.522Z,100664.59
2023-03-20T17:16:24.757Z,100671.59
2023-03-20T17:19:21.146Z,100671.59
2023-03-20T17:21:48.365Z,100675.91
2023-03-20T17:24:16.282Z,100687.28
2023-03-20T17:26:46.493Z,100680.25
2023-03-20T17:29:13.788Z,100686.38
2023-03-20T17:31:40.437Z,100687.28
2023-03-20T17:34:07.131Z,100700.38
2023-03-20T17:36:35.316Z,100705.59
2023-03-20T17:39:02.225Z,100697.72
2023-03-20T17:41:29.365Z,100703.88
2023-03-20T17:43:56.723Z,100719.66
2023-03-20T17:46:27.304Z,100713.53
2023-03-20T17:49:06.091Z,100717.03
2023-03-20T17:51:33.534Z,100717.91
2023-03-20T17:54:00.192Z,100719.69
2023-03-20T17:56:30.261Z,100722.28
2023-03-20T17:58:57.725Z,100725.78
2023-03-20T18:01:24.859Z,100730.16
2023-03-20T18:03:51.541Z,100738.94
2023-03-20T18:06:30.675Z,100739.81
2023-03-20T18:08:58.582Z,100743.34
2023-03-20T18:11:26.062Z,100752.06
2023-03-20T18:13:52.743Z,100751.25
2023-03-20T18:16:25.076Z,100751.28
2023-03-20T18:18:52.825Z,100753.91
2023-03-20T18:21:19.806Z,100746.09
2023-03-20T18:23:46.683Z,100752.25
2023-03-20T18:26:25.232Z,100746.13
2023-03-20T18:28:54.078Z,100745.28
2023-03-20T18:31:21.529Z,100746.16
2023-03-20T18:33:49.954Z,100740.13
2023-03-20T18:36:21.720Z,100749.72
2023-03-20T18:38:49.363Z,100753.22
2023-03-20T18:41:16.049Z,100754.97
2023-03-20T18:43:43.371Z,100755.84
2023-03-20T18:46:20.704Z,100760.22
2023-03-20T18:48:48.738Z,100764.63
2023-03-20T18:51:15.703Z,100764.63
2023-03-20T18:53:42.760Z,100769.03
2023-03-20T18:56:18.041Z,100769.91
2023-03-20T18:58:45.871Z,100774.28
2023-03-20T19:01:15.552Z,100769.00
2023-03-20T19:03:44.050Z,100769.00
2023-03-20T19:06:14.930Z,100780.41
2023-03-20T19:08:42.251Z,100784.75
2023-03-20T19:11:15.008Z,100785.66
2023-03-20T19:13:45.575Z,100790.88
2023-03-20T19:16:35.138Z,100792.66
2023-03-20T19:19:04.149Z,100797.91
2023-03-20T19:21:33.530Z,100805.75
2023-03-20T19:24:03.267Z,100804.91
2023-03-20T19:26:31.934Z,100809.28
2023-03-20T19:29:00.915Z,100815.44
2023-03-20T19:31:29.475Z,100814.59
2023-03-20T19:33:56.854Z,100812.84
2023-03-20T19:36:27.611Z,100817.22
2023-03-20T19:38:56.021Z,100813.75
2023-03-20T19:41:22.678Z,100813.75
2023-03-20T19:43:53.663Z,100818.13
2023-03-20T19:46:38.595Z,100815.53
2023-03-20T19:49:06.828Z,100807.69
2023-03-20T19:51:33.709Z,100809.44
2023-03-20T19:54:00.704Z,100825.16
2023-03-20T19:56:27.417Z,100812.06
2023-03-20T19:58:54.852Z,100820.75
2023-03-20T20:01:24.221Z,100821.66
2023-03-20T20:03:53.705Z,100824.25
2023-03-20T20:06:22.534Z,100829.50
2023-03-20T20:08:51.127Z,100827.72
2023-03-20T20:11:18.931Z,100829.50
2023-03-20T20:14:07.165Z,100834.75
2023-03-20T20:16:34.476Z,100834.75
2023-03-20T20:19:01.223Z,100840.84
2023-03-20T20:22:13.443Z,100832.09
2023-03-20T20:24:16.106Z,100841.72
2023-03-20T20:26:53.218Z,100843.50
2023-03-20T20:29:21.369Z,100834.75
2023-03-20T20:31:48.228Z,100847.84
2023-03-20T20:37:51.200Z,100840.00
2023-03-20T20:39:48.788Z,100835.66
2023-03-20T20:42:17.229Z,100833.03
2023-03-20T20:44:44.724Z,100839.16
2023-03-20T20:47:11.553Z,100840.91
2023-03-20T20:49:38.305Z,100840.94
2023-03-20T20:52:05.647Z,100841.81
2023-03-20T20:54:34.099Z,100835.69
2023-03-20T20:57:01.831Z,100837.47
2023-03-20T20:59:28.871Z,100840.97
2023-03-20T21:01:55.865Z,100842.72
2023-03-20T21:04:22.577Z,100842.69
2023-03-20T21:07:10.483Z,100845.31
2023-03-20T21:09:35.990Z,100849.69
2023-03-20T21:12:03.691Z,100848.81
2023-03-20T21:14:30.701Z,100854.94
2023-03-20T21:17:01.056Z,100858.41
2023-03-20T21:19:37.242Z,100859.31
2023-03-20T21:22:05.844Z,100861.91
2023-03-20T21:24:34.686Z,100852.31
2023-03-20T21:27:08.130Z,100858.44
2023-03-20T21:29:34.941Z,100861.94
2023-03-20T21:32:01.761Z,100854.09
2023-03-20T21:34:29.264Z,100854.09
2023-03-20T21:36:57.850Z,100854.09
2023-03-20T21:39:27.603Z,100858.44
2023-03-20T21:41:54.586Z,100861.03
2023-03-20T21:44:57.313Z,100862.81
2023-03-20T21:56:27.755Z,100876.75
2023-03-20T21:58:57.498Z,100874.97
2023-03-20T22:01:45.924Z,100868.88
2023-03-20T22:15:33.930Z,100883.69
2023-03-20T22:35:17.811Z,100892.41
2023-03-20T22:38:08.500Z,100888.06
2023-03-20T22:43:20.811Z,100895.91
2023-03-20T22:45:52.645Z,100899.38
2023-03-20T22:48:21.926Z,100901.13
2023-03-20T22:50:49.456Z,100907.25
2023-03-20T22:53:17.158Z,100909.00
2023-03-20T22:55:45.642Z,100912.50
2023-03-20T22:58:14.697Z,100913.34
2023-03-20T23:00:42.574Z,100910.69
2023-03-20T23:03:22.297Z,100898.47
2023-03-20T23:05:56.766Z,100906.28
2023-03-20T23:08:23.694Z,100905.41
2023-03-20T23:10:51.733Z,100908.06
2023-03-20T23:13:20.414Z,100911.59
2023-03-20T23:15:48.003Z,100921.19
2023-03-20T23:18:15.450Z,100919.44
2023-03-20T23:20:42.347Z,100921.19
2023-03-20T23:23:09.966Z,100917.72
2023-03-20T23:25:39.613Z,100922.94
2023-03-20T23:28:09.143Z,100922.97
2023-03-20T23:31:07.497Z,100929.91
2023-03-20T23:33:23.211Z,100931.69
2023-03-20T23:36:01.177Z,100936.91
2023-03-20T23:38:35.957Z,100938.66
2023-03-20T23:41:02.657Z,100939.50
2023-03-20T23:43:29.609Z,100946.44
2023-03-20T23:45:56.241Z,100944.75
2023-03-20T23:48:23.235Z,100943.78
2023-03-20T23:50:53.279Z,100938.53
2023-03-20T23:53:21.217Z,100939.31
2023-03-20T23:55:50.817Z,100935.84
2023-03-20T23:58:18.585Z,100950.66
